sensor_id;sensor_type;location;lat;lon;timestamp;temperature;humidity
3790;DHT22;1910;49.042;9.028;2024-03-08T00:01:09;3.80;99.90
3790;DHT22;1910;49.042;9.028;2024-03-08T00:08:27;3.70;99.90
3790;DHT22;1910;49.042;9.028;2024-03-08T00:10:52;3.70;99.90
3790;DHT22;1910;49.042;9.028;2024-03-08T00:13:18;3.70;99.90
3790;DHT22;1910;49.042;9.028;2024-03-08T00:18:09;3.70;99.90
3790;DHT22;1910;49.042;9.028;2024-03-08T00:20:36;3.60;99.90
3790;DHT22;1910;49.042;9.028;2024-03-08T00:25:28;3.60;99.90
3790;DHT22;1910;49.042;9.028;2024-03-08T00:27:54;3.60;99.90
3790;DHT22;1910;49.042;9.028;2024-03-08T00:30:23;3.40;99.90
3790;DHT22;1910;49.042;9.028;2024-03-08T00:32:50;3.30;99.90
3790;DHT22;1910;49.042;9.028;2024-03-08T00:37:43;3.10;99.90
3790;DHT22;1910;49.042;9.028;2024-03-08T00:40:12;3.10;99.90
3790;DHT22;1910;49.042;9.028;2024-03-08T00:42:39;3.00;99.90
3790;DHT22;1910;49.042;9.028;2024-03-08T00:45:06;3.00;99.90
3790;DHT22;1910;49.042;9.028;2024-03-08T00:47:33;2.90;99.90
3790;DHT22;1910;49.042;9.028;2024-03-08T00:54:50;2.90;99.90
3790;DHT22;1910;49.042;9.028;2024-03-08T00:59:42;2.80;99.90
3790;DHT22;1910;49.042;9.028;2024-03-08T01:02:07;2.80;99.90
3790;DHT22;1910;49.042;9.028;2024-03-08T01:04:36;2.70;99.90
3790;DHT22;1910;49.042;9.028;2024-03-08T01:09:28;2.80;99.90
3790;DHT22;1910;49.042;9.028;2024-03-08T01:11:54;2.80;99.90
3790;DHT22;1910;49.042;9.028;2024-03-08T01:14:21;2.90;99.90
3790;DHT22;1910;49.042;9.028;2024-03-08T01:16:49;2.70;99.90
3790;DHT22;1910;49.042;9.028;2024-03-08T01:19:15;3.00;99.90
3790;DHT22;1910;49.042;9.028;2024-03-08T01:21:41;2.90;99.90
3790;DHT22;1910;49.042;9.028;2024-03-08T01:26:33;2.80;99.90
3790;DHT22;1910;49.042;9.028;2024-03-08T01:29:00;2.70;99.90
3790;DHT22;1910;49.042;9.028;2024-03-08T01:31:26;2.70;99.90
3790;DHT22;1910;49.042;9.028;2024-03-08T01:33:54;2.70;99.90
3790;DHT22;1910;49.042;9.028;2024-03-08T01:36:19;2.70;99.90
3790;DHT22;1910;49.042;9.028;2024-03-08T01:41:13;2.70;99.90
3790;DHT22;1910;49.042;9.028;2024-03-08T01:43:39;2.80;99.90
3790;DHT22;1910;49.042;9.028;2024-03-08T01:46:05;2.80;99.90
3790;DHT22;1910;49.042;9.028;2024-03-08T01:50:59;2.60;99.90
3790;DHT22;1910;49.042;9.028;2024-03-08T01:53:27;2.40;99.90
3790;DHT22;1910;49.042;9.028;2024-03-08T01:55:56;2.50;99.90
3790;DHT22;1910;49.042;9.028;2024-03-08T01:58:23;2.50;99.90
3790;DHT22;1910;49.042;9.028;2024-03-08T02:00:49;2.50;99.90
3790;DHT22;1910;49.042;9.028;2024-03-08T02:03:15;2.40;99.90
3790;DHT22;1910;49.042;9.028;2024-03-08T02:05:41;2.40;99.90
3790;DHT22;1910;49.042;9.028;2024-03-08T02:10:33;2.50;99.90
3790;DHT22;1910;49.042;9.028;2024-03-08T02:13:03;2.30;99.90
3790;DHT22;1910;49.042;9.028;2024-03-08T02:15:51;2.30;99.90
3790;DHT22;1910;49.042;9.028;2024-03-08T02:20:44;2.20;99.90
3790;DHT22;1910;49.042;9.028;2024-03-08T02:28:02;2.40;99.90
3790;DHT22;1910;49.042;9.028;2024-03-08T02:32:55;2.40;99.90
3790;DHT22;1910;49.042;9.028;2024-03-08T02:35:21;2.40;99.90
3790;DHT22;1910;49.042;9.028;2024-03-08T02:40:13;2.30;99.90
3790;DHT22;1910;49.042;9.028;2024-03-08T02:42:39;2.30;99.90
3790;DHT22;1910;49.042;9.028;2024-03-08T02:47:31;2.30;99.90
3790;DHT22;1910;49.042;9.028;2024-03-08T02:49:57;2.30;99.90
3790;DHT22;1910;49.042;9.028;2024-03-08T02:52:23;2.30;99.90
3790;DHT22;1910;49.042;9.028;2024-03-08T02:54:48;2.30;99.90
3790;DHT22;1910;49.042;9.028;2024-03-08T02:57:15;2.20;99.90
3790;DHT22;1910;49.042;9.028;2024-03-08T02:59:41;2.20;99.90
3790;DHT22;1910;49.042;9.028;2024-03-08T03:02:07;2.00;99.90
3790;DHT22;1910;49.042;9.028;2024-03-08T03:07:00;2.00;99.90
3790;DHT22;1910;49.042;9.028;2024-03-08T03:09:26;1.90;99.90
3790;DHT22;1910;49.042;9.028;2024-03-08T03:11:53;1.90;99.90
3790;DHT22;1910;49.042;9.028;2024-03-08T03:14:23;1.90;99.90
3790;DHT22;1910;49.042;9.028;2024-03-08T03:16:49;1.90;99.90
3790;DHT22;1910;49.042;9.028;2024-03-08T03:19:15;1.80;99.90
3790;DHT22;1910;49.042;9.028;2024-03-08T03:21:41;1.70;99.90
3790;DHT22;1910;49.042;9.028;2024-03-08T03:24:08;1.70;99.90
3790;DHT22;1910;49.042;9.028;2024-03-08T03:26:36;1.60;99.90
3790;DHT22;1910;49.042;9.028;2024-03-08T03:29:07;1.60;99.90
3790;DHT22;1910;49.042;9.028;2024-03-08T03:31:35;1.60;99.90
3790;DHT22;1910;49.042;9.028;2024-03-08T03:34:01;1.60;99.90
3790;DHT22;1910;49.042;9.028;2024-03-08T03:36:32;1.50;99.90
3790;DHT22;1910;49.042;9.028;2024-03-08T03:38:58;1.40;99.90
3790;DHT22;1910;49.042;9.028;2024-03-08T03:41:38;2.00;99.90
3790;DHT22;1910;49.042;9.028;2024-03-08T03:44:05;1.50;99.90
3790;DHT22;1910;49.042;9.028;2024-03-08T03:46:32;1.20;99.90
3790;DHT22;1910;49.042;9.028;2024-03-08T03:48:58;1.20;99.90
3790;DHT22;1910;49.042;9.028;2024-03-08T03:53:50;1.10;99.90
3790;DHT22;1910;49.042;9.028;2024-03-08T03:58:42;1.10;99.90
3790;DHT22;1910;49.042;9.028;2024-03-08T04:03:35;1.00;99.90
3790;DHT22;1910;49.042;9.028;2024-03-08T04:06:01;1.00;99.90
3790;DHT22;1910;49.042;9.028;2024-03-08T04:08:27;1.00;99.90
3790;DHT22;1910;49.042;9.028;2024-03-08T04:10:52;0.90;99.90
3790;DHT22;1910;49.042;9.028;2024-03-08T04:13:18;1.80;99.90
3790;DHT22;1910;49.042;9.028;2024-03-08T04:15:45;0.90;99.90
3790;DHT22;1910;49.042;9.028;2024-03-08T04:18:13;0.90;99.90
3790;DHT22;1910;49.042;9.028;2024-03-08T04:23:05;1.10;99.90
3790;DHT22;1910;49.042;9.028;2024-03-08T04:27:57;1.10;99.90
3790;DHT22;1910;49.042;9.028;2024-03-08T04:30:23;1.80;99.90
3790;DHT22;1910;49.042;9.028;2024-03-08T04:32:49;1.30;99.90
3790;DHT22;1910;49.042;9.028;2024-03-08T04:35:17;1.30;99.90
3790;DHT22;1910;49.042;9.028;2024-03-08T04:42:35;1.40;99.90
3790;DHT22;1910;49.042;9.028;2024-03-08T04:45:02;1.20;99.90
3790;DHT22;1910;49.042;9.028;2024-03-08T04:47:29;1.30;99.90
3790;DHT22;1910;49.042;9.028;2024-03-08T04:49:55;1.50;99.90
3790;DHT22;1910;49.042;9.028;2024-03-08T04:52:21;1.40;99.90
3790;DHT22;1910;49.042;9.028;2024-03-08T04:57:13;1.40;99.90
3790;DHT22;1910;49.042;9.028;2024-03-08T04:59:39;2.70;99.90
3790;DHT22;1910;49.042;9.028;2024-03-08T05:02:05;1.40;99.90
3790;DHT22;1910;49.042;9.028;2024-03-08T05:04:32;1.40;99.90
3790;DHT22;1910;49.042;9.028;2024-03-08T05:06:58;1.60;99.90
3790;DHT22;1910;49.042;9.028;2024-03-08T05:09:27;1.40;99.90
3790;DHT22;1910;49.042;9.028;2024-03-08T05:11:54;1.30;99.90
3790;DHT22;1910;49.042;9.028;2024-03-08T05:16:46;1.40;99.90
3790;DHT22;1910;49.042;9.028;2024-03-08T05:19:16;1.90;99.90
3790;DHT22;1910;49.042;9.028;2024-03-08T05:24:10;1.30;99.90
3790;DHT22;1910;49.042;9.028;2024-03-08T05:29:05;1.40;99.90
3790;DHT22;1910;49.042;9.028;2024-03-08T05:31:38;1.40;99.90
3790;DHT22;1910;49.042;9.028;2024-03-08T05:34:08;1.50;99.90
3790;DHT22;1910;49.042;9.028;2024-03-08T05:36:35;1.50;99.90
3790;DHT22;1910;49.042;9.028;2024-03-08T05:43:52;1.50;99.90
3790;DHT22;1910;49.042;9.028;2024-03-08T05:46:19;1.50;99.90
3790;DHT22;1910;49.042;9.028;2024-03-08T05:48:44;2.40;99.90
3790;DHT22;1910;49.042;9.028;2024-03-08T05:51:10;2.70;99.90
3790;DHT22;1910;49.042;9.028;2024-03-08T05:53:36;1.50;99.90
3790;DHT22;1910;49.042;9.028;2024-03-08T05:56:01;1.50;99.90
3790;DHT22;1910;49.042;9.028;2024-03-08T05:58:27;1.50;99.90
3790;DHT22;1910;49.042;9.028;2024-03-08T06:00:55;1.90;99.90
3790;DHT22;1910;49.042;9.028;2024-03-08T06:03:21;1.40;99.90
3790;DHT22;1910;49.042;9.028;2024-03-08T06:05:48;2.60;99.90
3790;DHT22;1910;49.042;9.028;2024-03-08T06:08:14;1.40;99.90
3790;DHT22;1910;49.042;9.028;2024-03-08T06:10:40;1.30;99.90
3790;DHT22;1910;49.042;9.028;2024-03-08T06:17:58;1.70;99.90
3790;DHT22;1910;49.042;9.028;2024-03-08T06:20:23;2.10;99.90
3790;DHT22;1910;49.042;9.028;2024-03-08T06:22:51;2.50;99.90
3790;DHT22;1910;49.042;9.028;2024-03-08T06:25:17;2.90;99.90
3790;DHT22;1910;49.042;9.028;2024-03-08T06:27:43;3.20;99.90
3790;DHT22;1910;49.042;9.028;2024-03-08T06:30:10;3.60;99.90
3790;DHT22;1910;49.042;9.028;2024-03-08T06:32:36;3.70;99.90
3790;DHT22;1910;49.042;9.028;2024-03-08T06:37:32;4.30;99.90
3790;DHT22;1910;49.042;9.028;2024-03-08T06:39:57;4.40;99.90
3790;DHT22;1910;49.042;9.028;2024-03-08T06:47:15;4.90;99.90
3790;DHT22;1910;49.042;9.028;2024-03-08T06:49:44;5.00;99.90
3790;DHT22;1910;49.042;9.028;2024-03-08T06:52:10;4.40;99.90
3790;DHT22;1910;49.042;9.028;2024-03-08T06:54:36;4.40;99.90
3790;DHT22;1910;49.042;9.028;2024-03-08T06:57:05;4.30;99.90
3790;DHT22;1910;49.042;9.028;2024-03-08T06:59:31;4.30;99.90
3790;DHT22;1910;49.042;9.028;2024-03-08T07:01:57;3.90;99.90
3790;DHT22;1910;49.042;9.028;2024-03-08T07:04:25;3.70;99.90
3790;DHT22;1910;49.042;9.028;2024-03-08T07:06:54;1.20;99.90
3790;DHT22;1910;49.042;9.028;2024-03-08T07:11:45;3.40;99.90
3790;DHT22;1910;49.042;9.028;2024-03-08T07:14:12;3.40;99.90
3790;DHT22;1910;49.042;9.028;2024-03-08T07:19:05;3.40;99.90
3790;DHT22;1910;49.042;9.028;2024-03-08T07:23:57;3.40;99.90
3790;DHT22;1910;49.042;9.028;2024-03-08T07:26:25;3.40;99.90
3790;DHT22;1910;49.042;9.028;2024-03-08T07:28:51;3.40;99.90
3790;DHT22;1910;49.042;9.028;2024-03-08T07:33:50;3.50;99.90
3790;DHT22;1910;49.042;9.028;2024-03-08T07:36:16;3.70;99.90
3790;DHT22;1910;49.042;9.028;2024-03-08T07:41:11;3.90;99.90
3790;DHT22;1910;49.042;9.028;2024-03-08T07:43:36;4.10;99.90
3790;DHT22;1910;49.042;9.028;2024-03-08T07:48:28;4.10;99.90
3790;DHT22;1910;49.042;9.028;2024-03-08T07:50:53;4.00;99.90
3790;DHT22;1910;49.042;9.028;2024-03-08T07:55:45;3.90;99.90
3790;DHT22;1910;49.042;9.028;2024-03-08T07:58:10;3.90;99.90
3790;DHT22;1910;49.042;9.028;2024-03-08T08:03:03;3.90;99.90
3790;DHT22;1910;49.042;9.028;2024-03-08T08:05:30;3.90;99.90
3790;DHT22;1910;49.042;9.028;2024-03-08T08:07:57;4.00;99.90
3790;DHT22;1910;49.042;9.028;2024-03-08T08:12:50;3.90;99.90
3790;DHT22;1910;49.042;9.028;2024-03-08T08:15:16;4.00;99.90
3790;DHT22;1910;49.042;9.028;2024-03-08T08:17:46;4.10;99.90
3790;DHT22;1910;49.042;9.028;2024-03-08T08:20:12;4.60;99.90
3790;DHT22;1910;49.042;9.028;2024-03-08T08:22:39;6.40;99.90
3790;DHT22;1910;49.042;9.028;2024-03-08T08:25:08;4.20;99.90
3790;DHT22;1910;49.042;9.028;2024-03-08T08:27:34;4.20;99.90
3790;DHT22;1910;49.042;9.028;2024-03-08T08:30:02;4.30;99.90
3790;DHT22;1910;49.042;9.028;2024-03-08T08:37:25;4.30;99.90
3790;DHT22;1910;49.042;9.028;2024-03-08T08:39:50;4.30;99.90
3790;DHT22;1910;49.042;9.028;2024-03-08T08:42:16;4.40;99.90
3790;DHT22;1910;49.042;9.028;2024-03-08T08:44:43;4.40;99.90
3790;DHT22;1910;49.042;9.028;2024-03-08T08:47:08;4.40;99.90
3790;DHT22;1910;49.042;9.028;2024-03-08T08:52:00;5.00;99.90
3790;DHT22;1910;49.042;9.028;2024-03-08T08:56:53;5.00;99.90
3790;DHT22;1910;49.042;9.028;2024-03-08T09:01:45;5.20;99.90
3790;DHT22;1910;49.042;9.028;2024-03-08T09:04:13;5.20;99.90
3790;DHT22;1910;49.042;9.028;2024-03-08T09:09:09;5.00;99.90
3790;DHT22;1910;49.042;9.028;2024-03-08T09:11:36;4.90;99.90
3790;DHT22;1910;49.042;9.028;2024-03-08T09:14:03;5.00;99.90
3790;DHT22;1910;49.042;9.028;2024-03-08T09:16:32;4.90;99.90
3790;DHT22;1910;49.042;9.028;2024-03-08T09:21:26;4.70;99.90
3790;DHT22;1910;49.042;9.028;2024-03-08T09:26:21;4.90;99.90
3790;DHT22;1910;49.042;9.028;2024-03-08T09:28:47;4.90;99.90
3790;DHT22;1910;49.042;9.028;2024-03-08T09:36:06;5.10;99.90
3790;DHT22;1910;49.042;9.028;2024-03-08T09:43:29;5.10;99.90
3790;DHT22;1910;49.042;9.028;2024-03-08T09:45:57;5.20;99.90
3790;DHT22;1910;49.042;9.028;2024-03-08T09:48:23;5.10;99.90
3790;DHT22;1910;49.042;9.028;2024-03-08T09:53:14;5.20;99.90
3790;DHT22;1910;49.042;9.028;2024-03-08T09:58:12;5.20;99.90
3790;DHT22;1910;49.042;9.028;2024-03-08T10:00:46;5.10;99.90
3790;DHT22;1910;49.042;9.028;2024-03-08T10:05:41;5.30;99.90
3790;DHT22;1910;49.042;9.028;2024-03-08T10:08:07;5.30;99.90
3790;DHT22;1910;49.042;9.028;2024-03-08T10:10:36;5.30;99.90
3790;DHT22;1910;49.042;9.028;2024-03-08T10:13:06;5.30;99.90
3790;DHT22;1910;49.042;9.028;2024-03-08T10:15:32;5.30;99.90
3790;DHT22;1910;49.042;9.028;2024-03-08T10:17:58;5.30;99.90
3790;DHT22;1910;49.042;9.028;2024-03-08T10:22:52;5.40;99.90
3790;DHT22;1910;49.042;9.028;2024-03-08T10:25:19;5.60;99.90
3790;DHT22;1910;49.042;9.028;2024-03-08T10:27:44;5.80;99.90
3790;DHT22;1910;49.042;9.028;2024-03-08T10:30:14;6.00;99.90
3790;DHT22;1910;49.042;9.028;2024-03-08T10:32:41;6.00;99.90
3790;DHT22;1910;49.042;9.028;2024-03-08T10:35:07;6.20;99.90
3790;DHT22;1910;49.042;9.028;2024-03-08T10:37:45;6.20;99.90
3790;DHT22;1910;49.042;9.028;2024-03-08T10:40:16;6.10;99.90
3790;DHT22;1910;49.042;9.028;2024-03-08T10:45:36;6.30;99.90
3790;DHT22;1910;49.042;9.028;2024-03-08T10:50:48;6.60;99.90
3790;DHT22;1910;49.042;9.028;2024-03-08T10:53:17;6.40;99.90
3790;DHT22;1910;49.042;9.028;2024-03-08T10:55:44;6.40;99.90
3790;DHT22;1910;49.042;9.028;2024-03-08T11:00:37;6.70;99.90
3790;DHT22;1910;49.042;9.028;2024-03-08T11:03:04;6.70;99.90
3790;DHT22;1910;49.042;9.028;2024-03-08T11:05:37;6.70;99.90
3790;DHT22;1910;49.042;9.028;2024-03-08T11:08:19;6.50;99.90
3790;DHT22;1910;49.042;9.028;2024-03-08T11:10:50;7.00;99.90
3790;DHT22;1910;49.042;9.028;2024-03-08T11:15:59;7.10;99.90
3790;DHT22;1910;49.042;9.028;2024-03-08T11:20:54;7.00;99.90
3790;DHT22;1910;49.042;9.028;2024-03-08T11:23:22;6.60;99.90
3790;DHT22;1910;49.042;9.028;2024-03-08T11:28:20;6.10;99.90
3790;DHT22;1910;49.042;9.028;2024-03-08T11:31:22;6.10;99.90
3790;DHT22;1910;49.042;9.028;2024-03-08T11:33:36;5.90;99.90
3790;DHT22;1910;49.042;9.028;2024-03-08T11:36:11;6.10;99.90
3790;DHT22;1910;49.042;9.028;2024-03-08T11:38:46;6.10;99.90
3790;DHT22;1910;49.042;9.028;2024-03-08T11:41:16;6.80;99.90
3790;DHT22;1910;49.042;9.028;2024-03-08T11:43:43;6.80;99.90
3790;DHT22;1910;49.042;9.028;2024-03-08T11:46:10;7.10;99.90
3790;DHT22;1910;49.042;9.028;2024-03-08T11:48:40;7.10;99.90
3790;DHT22;1910;49.042;9.028;2024-03-08T11:51:08;7.20;99.90
3790;DHT22;1910;49.042;9.028;2024-03-08T11:56:09;7.30;99.90
3790;DHT22;1910;49.042;9.028;2024-03-08T11:58:35;7.30;99.90
3790;DHT22;1910;49.042;9.028;2024-03-08T12:01:08;7.20;99.90
3790;DHT22;1910;49.042;9.028;2024-03-08T12:03:43;9.80;99.90
3790;DHT22;1910;49.042;9.028;2024-03-08T12:11:03;7.90;99.90
3790;DHT22;1910;49.042;9.028;2024-03-08T12:13:31;8.00;99.90
3790;DHT22;1910;49.042;9.028;2024-03-08T12:21:13;8.10;99.90
3790;DHT22;1910;49.042;9.028;2024-03-08T12:23:44;8.30;99.90
3790;DHT22;1910;49.042;9.028;2024-03-08T12:26:13;8.20;99.90
3790;DHT22;1910;49.042;9.028;2024-03-08T12:28:40;8.30;99.90
3790;DHT22;1910;49.042;9.028;2024-03-08T12:31:07;8.70;99.90
3790;DHT22;1910;49.042;9.028;2024-03-08T12:33:37;8.80;99.90
3790;DHT22;1910;49.042;9.028;2024-03-08T12:36:03;8.80;99.90
3790;DHT22;1910;49.042;9.028;2024-03-08T12:38:32;8.60;99.90
3790;DHT22;1910;49.042;9.028;2024-03-08T12:40:58;8.70;99.90
3790;DHT22;1910;49.042;9.028;2024-03-08T12:45:50;8.80;99.90
3790;DHT22;1910;49.042;9.028;2024-03-08T12:53:10;8.80;99.90
3790;DHT22;1910;49.042;9.028;2024-03-08T12:55:36;8.80;99.90
3790;DHT22;1910;49.042;9.028;2024-03-08T12:58:02;8.90;99.90
3790;DHT22;1910;49.042;9.028;2024-03-08T13:00:28;8.90;99.90
3790;DHT22;1910;49.042;9.028;2024-03-08T13:10:13;9.00;99.90
3790;DHT22;1910;49.042;9.028;2024-03-08T13:12:43;9.00;99.90
3790;DHT22;1910;49.042;9.028;2024-03-08T13:15:10;9.20;99.90
3790;DHT22;1910;49.042;9.028;2024-03-08T13:20:09;9.30;99.90
3790;DHT22;1910;49.042;9.028;2024-03-08T13:25:08;9.60;99.90
3790;DHT22;1910;49.042;9.028;2024-03-08T13:30:05;10.00;99.90
3790;DHT22;1910;49.042;9.028;2024-03-08T13:34:58;9.90;99.90
3790;DHT22;1910;49.042;9.028;2024-03-08T13:37:23;10.10;99.90
3790;DHT22;1910;49.042;9.028;2024-03-08T13:39:49;10.20;99.90
3790;DHT22;1910;49.042;9.028;2024-03-08T13:44:46;10.00;99.90
3790;DHT22;1910;49.042;9.028;2024-03-08T13:47:16;10.00;99.90
3790;DHT22;1910;49.042;9.028;2024-03-08T13:54:36;9.90;99.90
3790;DHT22;1910;49.042;9.028;2024-03-08T13:59:33;10.30;99.90
3790;DHT22;1910;49.042;9.028;2024-03-08T14:04:30;10.40;99.90
3790;DHT22;1910;49.042;9.028;2024-03-08T14:06:56;10.40;99.90
3790;DHT22;1910;49.042;9.028;2024-03-08T14:11:57;10.60;99.90
3790;DHT22;1910;49.042;9.028;2024-03-08T14:14:24;10.60;99.90
3790;DHT22;1910;49.042;9.028;2024-03-08T14:16:50;10.50;99.90
3790;DHT22;1910;49.042;9.028;2024-03-08T14:21:47;10.40;99.90
3790;DHT22;1910;49.042;9.028;2024-03-08T14:26:44;10.40;99.90
3790;DHT22;1910;49.042;9.028;2024-03-08T14:31:37;10.30;99.90
3790;DHT22;1910;49.042;9.028;2024-03-08T14:34:03;10.30;99.90
3790;DHT22;1910;49.042;9.028;2024-03-08T14:43:48;10.40;99.90
3790;DHT22;1910;49.042;9.028;2024-03-08T14:46:16;10.40;99.90
3790;DHT22;1910;49.042;9.028;2024-03-08T14:48:55;10.50;99.90
3790;DHT22;1910;49.042;9.028;2024-03-08T14:53:52;10.60;99.90
3790;DHT22;1910;49.042;9.028;2024-03-08T14:58:44;10.50;99.90
3790;DHT22;1910;49.042;9.028;2024-03-08T15:03:42;10.30;99.90
3790;DHT22;1910;49.042;9.028;2024-03-08T15:06:18;10.30;99.90
3790;DHT22;1910;49.042;9.028;2024-03-08T15:08:47;10.40;99.90
3790;DHT22;1910;49.042;9.028;2024-03-08T15:13:54;10.50;99.90
3790;DHT22;1910;49.042;9.028;2024-03-08T15:28:42;10.40;99.90
3790;DHT22;1910;49.042;9.028;2024-03-08T15:31:12;10.40;99.90
3790;DHT22;1910;49.042;9.028;2024-03-08T15:33:40;10.40;99.90
3790;DHT22;1910;49.042;9.028;2024-03-08T15:36:17;10.40;99.90
3790;DHT22;1910;49.042;9.028;2024-03-08T15:38:43;10.40;99.90
3790;DHT22;1910;49.042;9.028;2024-03-08T15:41:16;10.30;99.90
3790;DHT22;1910;49.042;9.028;2024-03-08T15:48:39;10.30;99.90
3790;DHT22;1910;49.042;9.028;2024-03-08T15:51:07;10.30;99.90
3790;DHT22;1910;49.042;9.028;2024-03-08T15:53:36;10.30;99.90
3790;DHT22;1910;49.042;9.028;2024-03-08T16:03:22;10.40;99.90
3790;DHT22;1910;49.042;9.028;2024-03-08T16:05:49;10.20;99.90
3790;DHT22;1910;49.042;9.028;2024-03-08T16:08:17;10.30;99.90
3790;DHT22;1910;49.042;9.028;2024-03-08T16:10:46;10.30;99.90
3790;DHT22;1910;49.042;9.028;2024-03-08T16:13:16;10.30;99.90
3790;DHT22;1910;49.042;9.028;2024-03-08T16:15:46;10.30;99.90
3790;DHT22;1910;49.042;9.028;2024-03-08T16:20:41;10.30;99.90
3790;DHT22;1910;49.042;9.028;2024-03-08T16:23:09;10.20;99.90
3790;DHT22;1910;49.042;9.028;2024-03-08T16:30:36;10.20;99.90
3790;DHT22;1910;49.042;9.028;2024-03-08T16:33:02;10.10;99.90
3790;DHT22;1910;49.042;9.028;2024-03-08T16:35:30;10.10;99.90
3790;DHT22;1910;49.042;9.028;2024-03-08T16:37:56;10.10;99.90
3790;DHT22;1910;49.042;9.028;2024-03-08T16:42:50;10.00;99.90
3790;DHT22;1910;49.042;9.028;2024-03-08T16:45:19;9.90;99.90
3790;DHT22;1910;49.042;9.028;2024-03-08T16:47:45;9.90;99.90
3790;DHT22;1910;49.042;9.028;2024-03-08T16:50:11;9.70;99.90
3790;DHT22;1910;49.042;9.028;2024-03-08T16:52:40;12.20;99.90
3790;DHT22;1910;49.042;9.028;2024-03-08T16:55:06;9.50;99.90
3790;DHT22;1910;49.042;9.028;2024-03-08T16:57:44;9.40;99.90
3790;DHT22;1910;49.042;9.028;2024-03-08T17:00:15;9.30;99.90
3790;DHT22;1910;49.042;9.028;2024-03-08T17:02:47;9.30;99.90
3790;DHT22;1910;49.042;9.028;2024-03-08T17:05:18;9.20;99.90
3790;DHT22;1910;49.042;9.028;2024-03-08T17:07:48;9.20;99.90
3790;DHT22;1910;49.042;9.028;2024-03-08T17:10:15;9.20;99.90
3790;DHT22;1910;49.042;9.028;2024-03-08T17:12:47;9.20;99.90
3790;DHT22;1910;49.042;9.028;2024-03-08T17:15:19;9.10;99.90
3790;DHT22;1910;49.042;9.028;2024-03-08T17:17:48;9.10;99.90
3790;DHT22;1910;49.042;9.028;2024-03-08T17:20:14;8.80;99.90
3790;DHT22;1910;49.042;9.028;2024-03-08T17:22:41;8.70;99.90
3790;DHT22;1910;49.042;9.028;2024-03-08T17:25:07;9.90;99.90
3790;DHT22;1910;49.042;9.028;2024-03-08T17:27:34;8.60;99.90
3790;DHT22;1910;49.042;9.028;2024-03-08T17:30:02;8.50;99.90
3790;DHT22;1910;49.042;9.028;2024-03-08T17:32:37;8.40;99.90
3790;DHT22;1910;49.042;9.028;2024-03-08T17:35:03;8.30;99.90
3790;DHT22;1910;49.042;9.028;2024-03-08T17:39:55;8.10;99.90
3790;DHT22;1910;49.042;9.028;2024-03-08T17:42:21;8.00;99.90
3790;DHT22;1910;49.042;9.028;2024-03-08T17:44:48;8.00;99.90
3790;DHT22;1910;49.042;9.028;2024-03-08T17:47:14;11.50;99.90
3790;DHT22;1910;49.042;9.028;2024-03-08T17:49:42;7.90;99.90
3790;DHT22;1910;49.042;9.028;2024-03-08T17:52:08;7.70;99.90
3790;DHT22;1910;49.042;9.028;2024-03-08T17:54:36;7.70;99.90
3790;DHT22;1910;49.042;9.028;2024-03-08T17:57:02;8.50;99.90
3790;DHT22;1910;49.042;9.028;2024-03-08T17:59:28;7.70;99.90
3790;DHT22;1910;49.042;9.028;2024-03-08T18:01:53;7.60;99.90
3790;DHT22;1910;49.042;9.028;2024-03-08T18:04:20;7.60;99.90
3790;DHT22;1910;49.042;9.028;2024-03-08T18:06:47;7.50;99.90
3790;DHT22;1910;49.042;9.028;2024-03-08T18:11:39;7.40;99.90
3790;DHT22;1910;49.042;9.028;2024-03-08T18:14:06;7.30;99.90
3790;DHT22;1910;49.042;9.028;2024-03-08T18:16:39;7.30;99.90
3790;DHT22;1910;49.042;9.028;2024-03-08T18:19:07;7.20;99.90
3790;DHT22;1910;49.042;9.028;2024-03-08T18:21:37;7.20;99.90
3790;DHT22;1910;49.042;9.028;2024-03-08T18:24:04;7.20;99.90
3790;DHT22;1910;49.042;9.028;2024-03-08T18:26:30;7.10;99.90
3790;DHT22;1910;49.042;9.028;2024-03-08T18:29:00;7.10;99.90
3790;DHT22;1910;49.042;9.028;2024-03-08T18:36:21;7.10;99.90
3790;DHT22;1910;49.042;9.028;2024-03-08T18:38:47;7.00;99.90
3790;DHT22;1910;49.042;9.028;2024-03-08T18:41:14;7.00;99.90
3790;DHT22;1910;49.042;9.028;2024-03-08T18:43:40;7.10;99.90
3790;DHT22;1910;49.042;9.028;2024-03-08T18:46:05;7.00;99.90
3790;DHT22;1910;49.042;9.028;2024-03-08T18:48:32;7.10;99.90
3790;DHT22;1910;49.042;9.028;2024-03-08T18:50:58;7.00;99.90
3790;DHT22;1910;49.042;9.028;2024-03-08T18:53:25;7.00;99.90
3790;DHT22;1910;49.042;9.028;2024-03-08T18:55:51;6.90;99.90
3790;DHT22;1910;49.042;9.028;2024-03-08T18:58:18;6.90;99.90
3790;DHT22;1910;49.042;9.028;2024-03-08T19:00:43;6.80;99.90
3790;DHT22;1910;49.042;9.028;2024-03-08T19:03:16;6.80;99.90
3790;DHT22;1910;49.042;9.028;2024-03-08T19:05:42;6.80;99.90
3790;DHT22;1910;49.042;9.028;2024-03-08T19:08:10;6.60;99.90
3790;DHT22;1910;49.042;9.028;2024-03-08T19:15:31;6.50;99.90
3790;DHT22;1910;49.042;9.028;2024-03-08T19:18:00;6.40;99.90
3790;DHT22;1910;49.042;9.028;2024-03-08T19:20:28;6.40;99.90
3790;DHT22;1910;49.042;9.028;2024-03-08T19:22:56;6.30;99.90
3790;DHT22;1910;49.042;9.028;2024-03-08T19:25:30;6.10;99.90
3790;DHT22;1910;49.042;9.028;2024-03-08T19:28:08;6.40;99.90
3790;DHT22;1910;49.042;9.028;2024-03-08T19:30:47;5.80;99.90
3790;DHT22;1910;49.042;9.028;2024-03-08T19:33:14;5.70;99.90
3790;DHT22;1910;49.042;9.028;2024-03-08T19:35:39;5.40;99.90
3790;DHT22;1910;49.042;9.028;2024-03-08T19:40:36;4.90;99.90
3790;DHT22;1910;49.042;9.028;2024-03-08T19:43:04;5.00;99.90
3790;DHT22;1910;49.042;9.028;2024-03-08T19:45:36;5.00;99.90
3790;DHT22;1910;49.042;9.028;2024-03-08T19:48:03;4.80;99.90
3790;DHT22;1910;49.042;9.028;2024-03-08T19:50:35;4.80;99.90
3790;DHT22;1910;49.042;9.028;2024-03-08T19:53:07;4.80;99.90
3790;DHT22;1910;49.042;9.028;2024-03-08T19:55:37;4.80;99.90
3790;DHT22;1910;49.042;9.028;2024-03-08T19:58:04;4.90;99.90
3790;DHT22;1910;49.042;9.028;2024-03-08T20:00:30;5.20;99.90
3790;DHT22;1910;49.042;9.028;2024-03-08T20:02:57;5.40;99.90
3790;DHT22;1910;49.042;9.028;2024-03-08T20:05:26;7.00;99.90
3790;DHT22;1910;49.042;9.028;2024-03-08T20:07:54;5.30;99.90
3790;DHT22;1910;49.042;9.028;2024-03-08T20:10:26;5.40;99.90
3790;DHT22;1910;49.042;9.028;2024-03-08T20:12:52;5.40;99.90
3790;DHT22;1910;49.042;9.028;2024-03-08T20:15:24;5.40;99.90
3790;DHT22;1910;49.042;9.028;2024-03-08T20:17:53;5.30;99.90
3790;DHT22;1910;49.042;9.028;2024-03-08T20:20:19;5.10;99.90
3790;DHT22;1910;49.042;9.028;2024-03-08T20:22:47;5.10;99.90
3790;DHT22;1910;49.042;9.028;2024-03-08T20:25:20;5.10;99.90
3790;DHT22;1910;49.042;9.028;2024-03-08T20:27:53;5.20;99.90
3790;DHT22;1910;49.042;9.028;2024-03-08T20:30:21;5.10;99.90
3790;DHT22;1910;49.042;9.028;2024-03-08T20:32:52;5.40;99.90
3790;DHT22;1910;49.042;9.028;2024-03-08T20:35:20;5.50;99.90
3790;DHT22;1910;49.042;9.028;2024-03-08T20:37:49;5.40;99.90
3790;DHT22;1910;49.042;9.028;2024-03-08T20:40:14;5.30;99.90
3790;DHT22;1910;49.042;9.028;2024-03-08T20:42:40;5.40;99.90
3790;DHT22;1910;49.042;9.028;2024-03-08T20:45:06;5.40;99.90
3790;DHT22;1910;49.042;9.028;2024-03-08T20:50:02;5.40;99.90
3790;DHT22;1910;49.042;9.028;2024-03-08T20:52:28;4.90;99.90
3790;DHT22;1910;49.042;9.028;2024-03-08T20:59:48;4.80;99.90
3790;DHT22;1910;49.042;9.028;2024-03-08T21:02:14;4.80;99.90
3790;DHT22;1910;49.042;9.028;2024-03-08T21:04:41;4.70;99.90
3790;DHT22;1910;49.042;9.028;2024-03-08T21:07:07;4.80;99.90
3790;DHT22;1910;49.042;9.028;2024-03-08T21:09:34;4.90;99.90
3790;DHT22;1910;49.042;9.028;2024-03-08T21:12:02;6.10;99.90
3790;DHT22;1910;49.042;9.028;2024-03-08T21:14:32;5.80;99.90
3790;DHT22;1910;49.042;9.028;2024-03-08T21:16:59;4.80;99.90
3790;DHT22;1910;49.042;9.028;2024-03-08T21:19:25;4.50;99.90
3790;DHT22;1910;49.042;9.028;2024-03-08T21:21:51;4.20;99.90
3790;DHT22;1910;49.042;9.028;2024-03-08T21:26:50;4.10;99.90